Time;durP1;ratioP1;P1;durP2;ratioP2;P2;SDS_P1;SDS_P2;PMS_P1;PMS_P2;Temp;Humidity;BMP_temperature;BMP_pressure;BME280_temperature;BME280_humidity;BME280_pressure;Samples;Min_cycle;Max_cycle;Signal;HPM_P1;HPM_P2
2024/04/08 00:01:36;;;;;;;2.25;2.10;;;16.50;99.90;;;;;;5038601;28;20225;-72
2024/04/08 00:04:01;;;;;;;2.20;2.00;;;16.50;99.90;;;;;;5036631;28;20778;-72
2024/04/08 00:06:28;;;;;;;2.03;1.80;;;16.50;99.90;;;;;;5037838;28;20236;-73
2024/04/08 00:08:54;;;;;;;2.70;2.50;;;16.40;99.90;;;;;;5031779;28;20871;-72
2024/04/08 00:11:21;;;;;;;2.40;2.20;;;16.40;99.90;;;;;;5023202;28;20302;-74
2024/04/08 00:13:47;;;;;;;2.28;2.08;;;16.40;99.90;;;;;;5036525;28;20313;-72
2024/04/08 00:16:16;;;;;;;2.53;2.33;;;16.40;99.90;;;;;;5038206;28;20360;-72
2024/04/08 00:18:42;;;;;;;1.85;1.75;;;16.40;99.90;;;;;;5037237;28;20310;-72
2024/04/08 00:21:09;;;;;;;2.63;2.25;;;16.30;99.90;;;;;;5034532;28;20289;-72
2024/04/08 00:23:34;;;;;;;2.45;2.25;;;16.30;99.90;;;;;;5035865;28;20298;-73
2024/04/08 00:26:05;;;;;;;2.30;2.10;;;16.20;99.90;;;;;;5037330;28;20650;-73
2024/04/08 00:28:31;;;;;;;2.00;1.90;;;16.20;99.90;;;;;;5038243;28;21531;-72
2024/04/08 00:31:03;;;;;;;2.13;1.92;;;16.10;99.90;;;;;;5021760;28;20215;-73
2024/04/08 00:33:30;;;;;;;2.17;2.00;;;16.10;99.90;;;;;;5041101;28;20210;-71
2024/04/08 00:35:57;;;;;;;2.00;1.90;;;16.10;99.90;;;;;;5040833;28;20231;-71
2024/04/08 00:38:23;;;;;;;2.28;2.08;;;16.10;99.90;;;;;;5036504;28;20301;-72
2024/04/08 00:40:51;;;;;;;2.22;2.08;;;16.20;99.90;;;;;;5035866;28;20392;-72
2024/04/08 00:43:16;;;;;;;2.17;2.08;;;16.10;99.90;;;;;;5036599;28;20793;-72
2024/04/08 00:45:46;;;;;;;1.90;1.80;;;16.10;99.90;;;;;;5040439;28;20226;-72
2024/04/08 00:48:13;;;;;;;2.53;2.33;;;16.00;99.90;;;;;;5033589;28;20836;-72
2024/04/08 00:50:43;;;;;;;2.58;2.15;;;16.00;99.90;;;;;;5039999;28;20844;-72
2024/04/08 00:53:09;;;;;;;2.50;2.30;;;15.90;99.90;;;;;;5038684;28;20310;-71
2024/04/08 00:55:38;;;;;;;2.95;2.25;;;15.90;99.90;;;;;;5038470;28;20203;-72
2024/04/08 00:58:04;;;;;;;2.47;2.28;;;15.90;99.90;;;;;;5037322;28;20321;-71
2024/04/08 01:00:31;;;;;;;2.70;2.40;;;15.80;99.90;;;;;;5032272;28;20304;-71
2024/04/08 01:02:58;;;;;;;2.33;2.10;;;15.80;99.90;;;;;;5035098;28;20759;-72
2024/04/08 01:05:25;;;;;;;2.40;2.10;;;15.80;99.90;;;;;;5038041;28;20426;-72
2024/04/08 01:07:53;;;;;;;2.80;2.60;;;15.80;99.90;;;;;;5039286;28;20342;-74
2024/04/08 01:10:20;;;;;;;1.98;1.88;;;15.80;99.90;;;;;;5038136;28;20276;-73
2024/04/08 01:12:46;;;;;;;2.30;2.10;;;15.80;99.90;;;;;;5037504;28;20309;-74
2024/04/08 01:15:14;;;;;;;2.58;2.38;;;15.80;99.90;;;;;;5025935;28;20671;-72
2024/04/08 01:17:40;;;;;;;2.38;2.17;;;15.70;99.90;;;;;;5022051;28;20235;-72
2024/04/08 01:20:08;;;;;;;2.40;2.05;;;15.70;99.90;;;;;;5037660;28;20217;-71
2024/04/08 01:22:34;;;;;;;2.55;2.28;;;15.70;99.90;;;;;;5035915;28;20324;-72
2024/04/08 01:25:04;;;;;;;2.53;2.10;;;15.70;99.90;;;;;;5036259;28;20222;-72
2024/04/08 01:27:30;;;;;;;2.33;2.13;;;15.60;99.90;;;;;;5034294;28;20677;-71
2024/04/08 01:29:57;;;;;;;2.10;1.90;;;15.60;99.90;;;;;;5036502;28;20314;-72
2024/04/08 01:32:23;;;;;;;2.83;2.30;;;15.50;99.90;;;;;;5037437;28;20306;-72
2024/04/08 01:34:50;;;;;;;2.30;2.20;;;15.50;99.90;;;;;;5039144;28;20305;-72
2024/04/08 01:37:16;;;;;;;2.05;1.95;;;15.50;99.90;;;;;;5039141;28;20246;-73
2024/04/08 01:39:43;;;;;;;2.55;2.35;;;15.50;99.90;;;;;;5025949;28;20289;-72
2024/04/08 01:42:11;;;;;;;2.50;2.30;;;15.50;99.90;;;;;;5028695;28;20323;-73
2024/04/08 01:44:38;;;;;;;2.08;1.98;;;15.40;99.90;;;;;;5035550;28;20227;-74
2024/04/08 01:47:04;;;;;;;2.42;2.22;;;15.40;99.90;;;;;;5036689;28;20269;-75
2024/04/08 01:49:31;;;;;;;2.22;2.03;;;15.40;99.90;;;;;;5038548;28;20222;-74
2024/04/08 01:51:57;;;;;;;2.60;2.20;;;15.30;99.90;;;;;;5024713;28;20237;-74
2024/04/08 01:54:24;;;;;;;2.85;2.10;;;15.30;99.90;;;;;;5049515;28;20272;-74
2024/04/08 01:56:50;;;;;;;4.65;2.40;;;15.20;99.90;;;;;;5041845;28;20305;-73
2024/04/08 01:59:19;;;;;;;2.20;2.00;;;15.20;99.90;;;;;;5039080;28;20582;-73
2024/04/08 02:01:46;;;;;;;3.25;2.00;;;15.10;99.90;;;;;;5039595;28;20306;-74
2024/04/08 02:04:13;;;;;;;1.95;1.85;;;15.10;99.90;;;;;;5040782;28;20225;-72
2024/04/08 02:06:39;;;;;;;2.00;1.90;;;15.10;99.90;;;;;;5040032;28;20226;-75
2024/04/08 02:09:08;;;;;;;2.08;1.92;;;15.10;99.90;;;;;;5040552;28;20681;-73
2024/04/08 02:11:34;;;;;;;2.10;2.00;;;15.10;99.90;;;;;;5040619;28;20218;-75
2024/04/08 02:14:01;;;;;;;1.95;1.85;;;15.10;99.90;;;;;;5041995;28;20239;-73
2024/04/08 02:16:28;;;;;;;2.85;1.88;;;15.10;99.90;;;;;;5039703;28;20314;-72
2024/04/08 02:18:55;;;;;;;2.83;1.80;;;15.10;99.90;;;;;;5037015;28;20727;-73
2024/04/08 02:21:21;;;;;;;2.33;2.13;;;15.10;99.90;;;;;;5039468;28;21057;-72
2024/04/08 02:23:49;;;;;;;1.60;1.50;;;15.10;99.90;;;;;;5040382;28;20206;-72
2024/04/08 02:26:15;;;;;;;2.05;1.90;;;15.00;99.90;;;;;;5044486;28;22181;-72
2024/04/08 02:28:42;;;;;;;2.30;1.80;;;15.00;99.90;;;;;;5039804;28;20219;-72
2024/04/08 02:31:08;;;;;;;1.80;1.70;;;15.00;99.90;;;;;;5037540;28;20222;-72
2024/04/08 02:33:37;;;;;;;2.10;1.98;;;15.00;99.90;;;;;;5038074;28;20754;-72
2024/04/08 02:36:03;;;;;;;1.60;1.50;;;15.00;99.90;;;;;;5041121;28;20318;-72
2024/04/08 02:38:30;;;;;;;1.70;1.60;;;14.90;99.90;;;;;;5037902;28;21059;-72
2024/04/08 02:40:56;;;;;;;2.55;2.15;;;14.90;99.90;;;;;;5040955;28;20314;-72
2024/04/08 02:43:24;;;;;;;2.25;1.70;;;15.00;99.90;;;;;;5038752;28;20221;-72
2024/04/08 02:45:50;;;;;;;2.17;1.80;;;14.90;99.90;;;;;;5038657;28;20302;-72
2024/04/08 02:48:19;;;;;;;1.60;1.50;;;14.90;99.90;;;;;;5039555;28;20305;-72
2024/04/08 02:50:46;;;;;;;2.92;2.22;;;14.90;99.90;;;;;;5040981;28;20214;-71
2024/04/08 02:53:13;;;;;;;1.73;1.63;;;14.80;99.90;;;;;;5040593;28;20230;-72
2024/04/08 02:55:39;;;;;;;1.70;1.60;;;14.80;99.90;;;;;;5036130;28;20301;-71
2024/04/08 02:58:06;;;;;;;2.03;1.92;;;14.70;99.90;;;;;;5036822;28;20493;-72
2024/04/08 03:00:37;;;;;;;2.35;2.15;;;14.70;99.90;;;;;;5036908;28;20318;-73
2024/04/08 03:03:04;;;;;;;3.30;2.30;;;14.70;99.90;;;;;;5038975;28;20320;-72
2024/04/08 03:05:30;;;;;;;2.47;2.13;;;14.60;99.90;;;;;;5038568;28;20226;-72
2024/04/08 03:07:58;;;;;;;2.00;1.90;;;14.60;99.90;;;;;;5037270;28;20376;-73
2024/04/08 03:10:24;;;;;;;2.50;2.30;;;14.50;99.90;;;;;;5037875;28;20298;-72
2024/04/08 03:12:53;;;;;;;2.22;2.05;;;14.50;99.90;;;;;;5038238;28;20302;-71
2024/04/08 03:15:19;;;;;;;2.25;2.05;;;14.50;99.90;;;;;;5038814;28;20215;-72
2024/04/08 03:17:46;;;;;;;2.05;1.85;;;14.50;99.90;;;;;;5037174;28;20241;-71
2024/04/08 03:20:11;;;;;;;2.10;1.90;;;14.50;99.90;;;;;;5039415;28;20787;-71
2024/04/08 03:22:38;;;;;;;2.05;1.85;;;14.50;99.90;;;;;;5022430;28;20312;-71
2024/04/08 03:25:07;;;;;;;1.58;1.48;;;14.50;99.90;;;;;;5032913;28;20309;-72
2024/04/08 03:27:34;;;;;;;2.35;1.83;;;14.50;99.90;;;;;;5039062;28;20239;-71
2024/04/08 03:29:59;;;;;;;2.33;1.75;;;14.60;99.90;;;;;;5039415;28;20306;-72
2024/04/08 03:32:26;;;;;;;1.58;1.48;;;14.50;99.90;;;;;;5040539;28;20301;-72
2024/04/08 03:34:52;;;;;;;1.50;1.40;;;14.60;99.90;;;;;;5038306;28;20718;-71
2024/04/08 03:37:25;;;;;;;1.58;1.48;;;14.50;99.90;;;;;;5035996;28;20219;-71
2024/04/08 03:39:52;;;;;;;2.67;2.10;;;14.50;99.90;;;;;;5023016;28;20217;-72
2024/04/08 03:42:21;;;;;;;2.55;1.98;;;14.50;99.90;;;;;;5038795;28;20306;-71
2024/04/08 03:44:48;;;;;;;2.17;2.00;;;14.50;99.90;;;;;;5037125;28;20225;-73
2024/04/08 03:47:14;;;;;;;1.98;1.85;;;14.50;99.90;;;;;;5036899;28;20317;-71
2024/04/08 03:49:42;;;;;;;2.13;1.92;;;14.40;99.90;;;;;;5037467;28;20305;-71
2024/04/08 03:52:07;;;;;;;3.10;1.70;;;14.40;99.90;;;;;;5037128;28;20245;-71
2024/04/08 03:54:34;;;;;;;1.70;1.60;;;14.40;99.90;;;;;;5037869;28;20590;-71
2024/04/08 03:57:00;;;;;;;1.98;1.73;;;14.40;99.90;;;;;;5036932;28;20713;-71
2024/04/08 03:59:29;;;;;;;1.90;1.63;;;14.30;99.90;;;;;;5033371;28;20212;-71
2024/04/08 04:01:54;;;;;;;1.88;1.65;;;14.30;99.90;;;;;;5036353;28;20238;-71
2024/04/08 04:04:21;;;;;;;1.60;1.50;;;14.20;99.90;;;;;;5032204;28;20327;-71
2024/04/08 04:06:47;;;;;;;1.90;1.58;;;14.20;99.90;;;;;;5028532;28;21240;-71
2024/04/08 04:11:13;;;;;;;1.90;1.50;;;14.20;99.90;;;;;;5380876;25;20715;-71
2024/04/08 04:13:39;;;;;;;1.63;1.50;;;14.20;99.90;;;;;;5380591;26;20394;-71
2024/04/08 04:16:08;;;;;;;3.45;1.75;;;14.20;99.90;;;;;;5374776;26;20394;-71
2024/04/08 04:18:34;;;;;;;2.00;1.80;;;14.20;99.90;;;;;;5376998;26;20334;-71
2024/04/08 04:21:03;;;;;;;2.40;1.70;;;14.20;99.90;;;;;;5380640;26;20851;-71
2024/04/08 04:23:29;;;;;;;1.90;1.80;;;14.20;99.90;;;;;;5366426;26;20566;-71
2024/04/08 04:26:02;;;;;;;1.70;1.60;;;14.20;99.90;;;;;;5375141;26;20251;-71
2024/04/08 04:28:30;;;;;;;2.05;1.73;;;14.20;99.90;;;;;;5378616;26;20299;-71
2024/04/08 04:31:00;;;;;;;1.75;1.65;;;14.20;99.90;;;;;;5417070;26;20294;-72
2024/04/08 04:33:26;;;;;;;1.73;1.63;;;14.20;99.90;;;;;;5412872;26;20639;-71
2024/04/08 04:35:55;;;;;;;1.70;1.60;;;14.20;99.90;;;;;;5412476;26;20283;-73
2024/04/08 04:38:22;;;;;;;2.13;1.80;;;14.20;99.90;;;;;;5419275;26;20306;-72
2024/04/08 04:41:00;;;;;;;1.70;1.60;;;14.20;99.90;;;;;;5419089;26;20799;-71
2024/04/08 04:43:26;;;;;;;1.88;1.77;;;14.10;99.90;;;;;;5411931;26;20279;-71
2024/04/08 04:45:58;;;;;;;1.88;1.70;;;14.10;99.90;;;;;;5410165;26;20338;-72
2024/04/08 04:48:24;;;;;;;1.90;1.70;;;14.10;99.90;;;;;;5422393;26;20839;-71
2024/04/08 04:50:53;;;;;;;1.70;1.60;;;14.20;99.90;;;;;;5408500;26;20297;-70
2024/04/08 04:53:19;;;;;;;2.38;1.63;;;14.20;99.90;;;;;;5408851;26;20750;-71
2024/04/08 04:55:53;;;;;;;1.92;1.83;;;14.10;99.90;;;;;;5413285;26;20247;-71
2024/04/08 04:58:19;;;;;;;2.55;2.05;;;14.10;99.90;;;;;;5420209;26;20343;-70
2024/04/08 05:00:49;;;;;;;2.08;1.90;;;14.10;99.90;;;;;;5409659;26;20831;-71
2024/04/08 05:03:18;;;;;;;1.90;1.70;;;14.10;99.90;;;;;;5414372;26;20390;-71
2024/04/08 05:05:54;;;;;;;2.95;1.90;;;14.00;99.90;;;;;;5406779;26;20368;-70
2024/04/08 05:08:20;;;;;;;2.00;1.83;;;14.00;99.90;;;;;;5413062;26;20698;-70
2024/04/08 05:10:49;;;;;;;1.88;1.77;;;13.90;99.90;;;;;;5411952;26;20251;-70
2024/04/08 05:13:16;;;;;;;2.58;2.00;;;13.90;99.90;;;;;;5408403;26;20244;-71
2024/04/08 05:15:45;;;;;;;2.65;1.83;;;13.90;99.90;;;;;;5408876;26;20295;-71
2024/04/08 05:18:11;;;;;;;2.08;1.88;;;13.90;99.90;;;;;;5404994;26;20267;-72
2024/04/08 05:20:42;;;;;;;2.40;2.20;;;13.80;99.90;;;;;;5409172;26;20318;-71
2024/04/08 05:23:13;;;;;;;1.98;1.88;;;13.80;99.90;;;;;;5392644;26;22128;-71
2024/04/08 05:25:41;;;;;;;2.03;1.83;;;13.90;99.90;;;;;;5398314;26;20299;-72
2024/04/08 05:28:07;;;;;;;1.70;1.60;;;14.00;99.90;;;;;;5397044;26;20311;-73
2024/04/08 05:30:36;;;;;;;3.47;1.85;;;14.10;99.90;;;;;;5401828;26;20364;-71
2024/04/08 05:33:03;;;;;;;1.88;1.77;;;14.20;99.90;;;;;;5393886;26;20295;-71
2024/04/08 05:35:32;;;;;;;2.15;1.95;;;14.30;99.90;;;;;;5396928;26;20257;-72
2024/04/08 05:38:01;;;;;;;2.13;1.80;;;14.40;99.90;;;;;;5401466;26;20295;-71
2024/04/08 05:40:29;;;;;;;2.55;2.10;;;14.50;99.90;;;;;;5395922;26;20300;-73
2024/04/08 05:42:55;;;;;;;1.80;1.70;;;14.70;99.90;;;;;;5388896;26;20785;-72
2024/04/08 05:45:24;;;;;;;2.15;1.90;;;14.90;99.90;;;;;;5392756;26;20348;-71
2024/04/08 05:47:54;;;;;;;3.33;1.90;;;15.20;99.90;;;;;;5398733;26;20765;-71
2024/04/08 05:50:23;;;;;;;2.28;2.17;;;15.50;99.90;;;;;;5390948;26;20257;-71
2024/04/08 05:52:49;;;;;;;1.92;1.83;;;15.80;99.90;;;;;;5391905;26;20871;-71
2024/04/08 05:55:21;;;;;;;3.65;2.00;;;16.20;99.90;;;;;;5396403;26;20907;-71
2024/04/08 05:57:46;;;;;;;1.80;1.70;;;16.40;99.90;;;;;;5400961;26;20286;-73
2024/04/08 06:00:18;;;;;;;6.35;2.10;;;16.80;99.90;;;;;;5395683;26;20256;-71
2024/04/08 06:02:49;;;;;;;2.17;1.98;;;17.20;99.90;;;;;;5399583;26;21064;-71
2024/04/08 06:05:21;;;;;;;5.05;2.15;;;17.50;99.90;;;;;;5388341;26;20395;-71
2024/04/08 06:07:48;;;;;;;5.18;2.60;;;17.70;99.90;;;;;;5400003;26;20304;-71
2024/04/08 06:10:21;;;;;;;4.78;2.45;;;17.60;99.90;;;;;;5392633;26;20253;-71
2024/04/08 06:12:47;;;;;;;2.47;2.20;;;17.60;99.90;;;;;;5399063;26;20252;-71
2024/04/08 06:15:16;;;;;;;3.70;2.30;;;17.70;99.90;;;;;;5391689;26;20260;-71
2024/04/08 06:17:42;;;;;;;2.45;2.10;;;17.80;99.90;;;;;;5396148;26;20306;-71
2024/04/08 06:20:12;;;;;;;5.22;2.13;;;17.90;99.90;;;;;;5391363;26;20277;-71
2024/04/08 06:22:38;;;;;;;4.53;2.40;;;17.90;99.90;;;;;;5393410;26;21209;-71
2024/04/08 06:25:09;;;;;;;2.28;2.03;;;17.80;99.90;;;;;;5398396;26;20725;-71
2024/04/08 06:27:37;;;;;;;8.35;2.30;;;17.80;99.90;;;;;;5399402;26;20672;-72
2024/04/08 06:30:07;;;;;;;2.75;1.98;;;17.60;99.90;;;;;;5391608;26;20953;-72
2024/04/08 06:32:33;;;;;;;2.47;2.28;;;17.70;99.90;;;;;;5401512;26;20323;-72
2024/04/08 06:35:02;;;;;;;7.70;2.38;;;17.80;99.90;;;;;;5398020;26;20283;-72
2024/04/08 06:37:28;;;;;;;2.83;2.35;;;17.80;99.90;;;;;;5395346;26;20328;-72
2024/04/08 06:39:57;;;;;;;2.90;2.17;;;17.60;99.90;;;;;;5406748;26;21027;-72
2024/04/08 06:42:22;;;;;;;2.20;2.00;;;17.50;99.90;;;;;;5408902;26;20272;-71
2024/04/08 06:44:54;;;;;;;4.82;2.13;;;17.30;99.90;;;;;;5393942;26;20261;-72
2024/04/08 06:47:20;;;;;;;3.47;2.30;;;17.20;99.90;;;;;;5393419;26;20292;-72
2024/04/08 06:49:49;;;;;;;2.95;2.33;;;17.10;99.90;;;;;;5396992;26;20264;-72
2024/04/08 06:52:15;;;;;;;2.75;2.25;;;17.00;99.90;;;;;;5392660;26;20260;-71
2024/04/08 06:54:45;;;;;;;4.00;2.40;;;16.80;99.90;;;;;;5404008;26;20305;-71
2024/04/08 06:57:11;;;;;;;2.80;2.47;;;16.70;99.90;;;;;;5397288;26;21166;-72
2024/04/08 06:59:40;;;;;;;2.47;2.20;;;16.70;99.90;;;;;;5401426;26;20256;-72
2024/04/08 07:02:09;;;;;;;2.78;1.95;;;16.60;99.90;;;;;;5397922;26;20256;-72
2024/04/08 07:04:37;;;;;;;3.45;2.40;;;16.60;99.90;;;;;;5397496;26;20355;-74
2024/04/08 07:07:04;;;;;;;11.20;2.90;;;16.40;99.90;;;;;;5399253;26;20264;-71
2024/04/08 07:09:32;;;;;;;3.25;2.58;;;16.30;99.90;;;;;;5393236;26;21153;-70
2024/04/08 07:11:59;;;;;;;5.43;2.33;;;16.30;99.90;;;;;;5399471;26;20256;-70
2024/04/08 07:14:27;;;;;;;3.53;2.67;;;16.30;99.90;;;;;;5401813;26;20260;-70
2024/04/08 07:16:54;;;;;;;2.35;2.10;;;16.30;99.90;;;;;;5399111;26;20256;-71
2024/04/08 07:19:25;;;;;;;3.30;2.33;;;16.50;99.90;;;;;;5386763;26;20786;-71
2024/04/08 07:21:51;;;;;;;2.45;2.22;;;16.70;99.90;;;;;;5398438;26;20833;-70
2024/04/08 07:24:19;;;;;;;2.88;2.15;;;17.00;99.90;;;;;;5387585;26;20320;-70
2024/04/08 07:26:45;;;;;;;3.88;2.20;;;17.20;99.90;;;;;;5398462;26;20275;-70
2024/04/08 07:29:15;;;;;;;5.00;2.20;;;17.40;99.90;;;;;;5386857;26;20291;-71
2024/04/08 07:31:41;;;;;;;3.33;2.20;;;17.60;99.90;;;;;;5399597;26;20339;-72
2024/04/08 07:34:09;;;;;;;4.93;2.28;;;17.60;99.90;;;;;;5405803;26;20260;-71
2024/04/08 07:36:38;;;;;;;2.58;2.38;;;17.60;99.90;;;;;;5394332;26;20256;-71
2024/04/08 07:39:07;;;;;;;2.80;2.25;;;17.80;99.90;;;;;;5392043;26;21036;-72
2024/04/08 07:41:34;;;;;;;3.40;2.45;;;18.10;99.90;;;;;;5393608;26;20602;-72
2024/04/08 07:44:02;;;;;;;3.58;2.30;;;18.40;99.90;;;;;;5389458;26;20331;-72
2024/04/08 07:46:28;;;;;;;2.20;2.00;;;18.90;99.90;;;;;;5392865;26;20264;-72
2024/04/08 07:48:57;;;;;;;2.10;1.90;;;19.40;99.90;;;;;;5400491;26;20368;-72
2024/04/08 07:51:23;;;;;;;2.25;2.05;;;20.10;99.90;;;;;;5393875;26;20300;-72
2024/04/08 07:53:54;;;;;;;3.28;2.10;;;20.50;99.90;;;;;;5393147;26;20237;-73
2024/04/08 07:56:20;;;;;;;4.28;1.98;;;20.90;99.90;;;;;;5386697;26;20720;-72
2024/04/08 07:58:51;;;;;;;4.22;2.45;;;20.90;99.90;;;;;;5400624;26;20299;-72
2024/04/08 08:01:17;;;;;;;5.28;2.30;;;20.90;99.90;;;;;;5391012;26;21117;-72
2024/04/08 08:03:46;;;;;;;4.57;2.92;;;20.80;99.90;;;;;;5400724;26;20260;-72
2024/04/08 08:06:14;;;;;;;7.75;2.35;;;20.60;99.90;;;;;;5396118;26;20362;-72
2024/04/08 08:08:42;;;;;;;4.55;2.13;;;20.50;99.90;;;;;;5396747;26;20945;-73
2024/04/08 08:11:14;;;;;;;4.32;2.15;;;20.50;99.90;;;;;;5396380;26;20292;-72
2024/04/08 08:13:42;;;;;;;6.53;2.33;;;20.70;99.90;;;;;;5397260;26;20256;-72
2024/04/08 08:16:11;;;;;;;4.60;2.42;;;20.80;99.90;;;;;;5392330;26;20264;-72
2024/04/08 08:18:41;;;;;;;5.28;1.90;;;20.90;99.90;;;;;;5390681;26;20252;-72
2024/04/08 08:21:10;;;;;;;6.05;2.50;;;20.90;99.90;;;;;;5347710;26;21010;-72
2024/04/08 08:23:38;;;;;;;5.78;2.55;;;20.90;99.90;;;;;;5401914;26;20872;-71
2024/04/08 08:26:07;;;;;;;6.18;2.47;;;21.00;99.90;;;;;;5394402;26;21070;-72
2024/04/08 08:28:38;;;;;;;3.88;2.10;;;21.10;99.90;;;;;;5367375;26;20316;-71
2024/04/08 08:31:07;;;;;;;4.50;2.42;;;21.20;99.90;;;;;;5392547;26;20252;-72
2024/04/08 08:33:33;;;;;;;3.88;2.25;;;21.10;99.90;;;;;;5398695;26;20286;-73
2024/04/08 08:36:02;;;;;;;3.08;2.25;;;21.20;99.90;;;;;;5396569;26;20302;-72
2024/04/08 08:38:28;;;;;;;3.97;2.38;;;21.20;99.90;;;;;;5402316;26;20283;-72
2024/04/08 08:41:04;;;;;;;2.30;2.10;;;21.20;99.90;;;;;;5401491;26;20278;-72
2024/04/08 08:43:31;;;;;;;3.35;2.30;;;21.30;99.90;;;;;;5394735;26;20260;-72
2024/04/08 08:46:02;;;;;;;4.00;2.40;;;21.20;99.90;;;;;;5390995;26;20300;-73
2024/04/08 08:48:28;;;;;;;3.00;1.90;;;21.20;99.90;;;;;;5399594;26;21082;-72
2024/04/08 08:51:00;;;;;;;5.22;2.40;;;21.20;99.90;;;;;;5396039;26;20264;-72
2024/04/08 08:53:26;;;;;;;5.90;2.30;;;21.40;99.90;;;;;;5393789;26;20722;-72
2024/04/08 08:56:00;;;;;;;3.70;2.58;;;21.90;99.90;;;;;;5396329;26;20600;-72
2024/04/08 08:58:26;;;;;;;2.97;2.13;;;22.00;99.90;;;;;;5368174;26;20259;-72
2024/04/08 09:00:55;;;;;;;3.78;2.42;;;22.10;99.90;;;;;;5399003;26;20804;-72
2024/04/08 09:03:28;;;;;;;4.63;2.58;;;22.30;99.90;;;;;;5402239;26;20256;-72
2024/04/08 09:05:57;;;;;;;3.58;2.20;;;22.10;99.90;;;;;;5403726;26;20260;-72
2024/04/08 09:08:23;;;;;;;5.78;2.45;;;21.90;99.90;;;;;;5372511;26;20886;-72
2024/04/08 09:10:52;;;;;;;5.20;2.35;;;21.70;99.90;;;;;;5398906;26;20304;-72
2024/04/08 09:13:19;;;;;;;3.17;2.08;;;21.60;99.90;;;;;;5402197;26;20356;-72
2024/04/08 09:15:48;;;;;;;5.10;2.50;;;21.90;99.90;;;;;;5401819;26;20252;-71
2024/04/08 09:18:14;;;;;;;4.00;2.25;;;22.20;99.90;;;;;;5394838;26;20259;-71
2024/04/08 09:20:46;;;;;;;3.35;2.00;;;22.70;99.90;;;;;;5400001;26;20364;-71
2024/04/08 09:23:12;;;;;;;4.53;2.25;;;23.10;99.90;;;;;;5395214;26;20299;-71
2024/04/08 09:25:42;;;;;;;5.00;2.60;;;23.50;99.90;;;;;;5400263;26;20268;-71
2024/04/08 09:28:09;;;;;;;2.65;2.10;;;23.40;99.90;;;;;;5402438;26;20292;-72
2024/04/08 09:30:38;;;;;;;2.67;2.10;;;23.20;99.90;;;;;;5400321;26;20260;-71
2024/04/08 09:33:05;;;;;;;4.35;2.10;;;23.30;99.90;;;;;;5404494;26;20260;-72
2024/04/08 09:35:41;;;;;;;2.92;2.15;;;23.40;99.90;;;;;;5401994;26;20778;-72
2024/04/08 09:38:12;;;;;;;6.70;2.55;;;23.30;99.90;;;;;;5403447;26;20957;-72
2024/04/08 09:40:42;;;;;;;4.05;2.17;;;23.50;99.90;;;;;;5389945;26;20264;-72
2024/04/08 09:43:08;;;;;;;3.05;1.90;;;23.40;99.90;;;;;;5395656;26;20335;-72
2024/04/08 09:45:38;;;;;;;3.15;2.10;;;23.50;99.90;;;;;;5396085;26;20252;-71
2024/04/08 09:48:05;;;;;;;4.45;2.33;;;23.40;99.90;;;;;;5396638;26;20695;-72
2024/04/08 09:50:35;;;;;;;3.67;1.90;;;23.00;99.90;;;;;;5395984;26;20251;-71
2024/04/08 09:53:02;;;;;;;3.70;1.90;;;22.80;99.90;;;;;;5396016;26;20646;-71
2024/04/08 09:55:37;;;;;;;5.35;2.05;;;22.50;99.90;;;;;;5399475;26;20295;-71
2024/04/08 09:58:08;;;;;;;3.03;2.20;;;22.30;99.90;;;;;;5394194;26;20255;-71
2024/04/08 10:00:38;;;;;;;3.38;2.00;;;22.30;99.90;;;;;;5401309;26;20260;-71
2024/04/08 10:03:08;;;;;;;2.38;2.00;;;22.40;99.90;;;;;;5399502;26;20298;-71
2024/04/08 10:05:37;;;;;;;5.20;1.92;;;22.40;99.90;;;;;;5401907;26;21170;-72
2024/04/08 10:08:04;;;;;;;7.35;2.10;;;22.40;99.90;;;;;;5398600;26;20796;-71
2024/04/08 10:10:37;;;;;;;6.60;2.15;;;22.30;99.90;;;;;;5400925;26;20257;-71
2024/04/08 10:13:03;;;;;;;3.53;2.20;;;22.30;99.90;;;;;;5401330;26;20263;-71
2024/04/08 10:15:34;;;;;;;3.90;1.92;;;22.70;99.90;;;;;;5393909;26;20261;-71
2024/04/08 10:18:00;;;;;;;4.47;1.85;;;22.80;99.90;;;;;;5400960;26;20721;-71
2024/04/08 10:20:30;;;;;;;2.20;1.85;;;22.70;99.90;;;;;;5394956;26;20260;-71
2024/04/08 10:22:56;;;;;;;3.67;1.90;;;22.60;99.90;;;;;;5397171;26;20325;-71
2024/04/08 10:25:40;;;;;;;2.90;2.38;;;22.60;99.90;;;;;;5395106;26;21069;-71
2024/04/08 10:28:07;;;;;;;6.35;2.03;;;22.70;99.90;;;;;;5392482;26;20290;-71
2024/04/08 10:30:36;;;;;;;2.97;2.05;;;22.80;99.90;;;;;;5398708;26;20264;-71
2024/04/08 10:33:03;;;;;;;2.35;1.98;;;22.70;99.90;;;;;;5398905;26;20252;-71
2024/04/08 10:35:32;;;;;;;3.92;1.95;;;23.00;99.90;;;;;;5394974;26;20338;-71
2024/04/08 10:37:58;;;;;;;2.83;1.88;;;23.30;99.90;;;;;;5398402;26;20719;-71
2024/04/08 10:40:27;;;;;;;5.72;1.90;;;23.40;99.90;;;;;;5394311;26;20282;-71
2024/04/08 10:42:56;;;;;;;3.35;2.10;;;23.70;99.90;;;;;;5398369;26;20394;-71
2024/04/08 10:45:25;;;;;;;4.47;2.28;;;23.90;99.90;;;;;;5392124;26;20252;-71
2024/04/08 10:47:56;;;;;;;4.20;2.20;;;24.10;99.90;;;;;;5399906;26;20260;-72
2024/04/08 10:50:24;;;;;;;2.50;1.90;;;24.00;99.90;;;;;;5392731;26;20260;-71
2024/04/08 10:52:50;;;;;;;2.95;1.98;;;24.00;99.90;;;;;;5393852;26;20261;-71
2024/04/08 10:55:19;;;;;;;3.78;2.03;;;24.00;99.90;;;;;;5398733;26;20260;-71
2024/04/08 10:57:45;;;;;;;2.90;1.83;;;24.00;99.90;;;;;;5399050;26;20283;-71
2024/04/08 11:00:17;;;;;;;3.80;2.10;;;24.00;99.90;;;;;;5392564;26;20252;-71
2024/04/08 11:02:43;;;;;;;8.02;2.10;;;23.90;99.90;;;;;;5398476;26;20300;-71
2024/04/08 11:05:13;;;;;;;3.50;2.05;;;23.80;99.90;;;;;;5399122;26;20260;-71
2024/04/08 11:07:39;;;;;;;2.60;1.83;;;23.80;99.90;;;;;;5393635;26;20260;-71
2024/04/08 11:10:10;;;;;;;2.42;1.92;;;24.00;99.90;;;;;;5395315;26;20286;-71
2024/04/08 11:12:36;;;;;;;2.80;1.90;;;24.00;99.90;;;;;;5395322;26;20260;-71
2024/04/08 11:15:05;;;;;;;2.13;1.77;;;24.10;99.90;;;;;;5394988;26;20269;-71
2024/04/08 11:17:34;;;;;;;3.30;1.77;;;24.20;99.90;;;;;;5396378;26;20761;-71
2024/04/08 11:20:05;;;;;;;4.75;1.83;;;24.40;99.90;;;;;;5397545;26;20696;-71
2024/04/08 11:22:33;;;;;;;2.92;2.00;;;24.40;99.90;;;;;;5395290;26;20264;-72
2024/04/08 11:25:03;;;;;;;3.03;1.83;;;24.30;99.90;;;;;;5391313;26;20830;-72
2024/04/08 11:27:29;;;;;;;3.90;2.05;;;24.20;99.90;;;;;;5400689;26;20252;-71
2024/04/08 11:29:58;;;;;;;1.67;1.50;;;24.30;99.90;;;;;;5399318;26;20911;-71
2024/04/08 11:32:24;;;;;;;5.93;2.30;;;24.50;99.90;;;;;;5398127;26;21114;-71
2024/04/08 11:34:55;;;;;;;2.97;1.75;;;24.70;99.90;;;;;;5371148;26;20279;-72
2024/04/08 11:37:21;;;;;;;2.70;1.90;;;24.80;99.90;;;;;;5396319;26;20291;-72
2024/04/08 11:39:50;;;;;;;3.08;1.88;;;24.80;99.90;;;;;;5398161;26;20248;-71
2024/04/08 11:42:16;;;;;;;6.25;2.08;;;24.70;99.90;;;;;;5395358;26;20313;-71
2024/04/08 11:44:46;;;;;;;2.10;1.60;;;24.80;99.90;;;;;;5399791;26;20263;-72
2024/04/08 11:47:13;;;;;;;3.47;2.25;;;24.90;99.90;;;;;;5397601;26;20294;-71
2024/04/08 11:49:42;;;;;;;4.35;2.15;;;24.90;99.90;;;;;;5397827;26;20304;-71
2024/04/08 11:52:12;;;;;;;2.13;1.63;;;24.90;99.90;;;;;;5394676;26;20390;-71
2024/04/08 11:54:42;;;;;;;2.78;2.00;;;24.90;99.90;;;;;;5399844;26;20797;-72
2024/04/08 11:57:08;;;;;;;4.72;2.00;;;24.90;99.90;;;;;;5396486;26;20283;-71
2024/04/08 11:59:37;;;;;;;6.03;2.08;;;24.90;99.90;;;;;;5397434;26;20323;-72
2024/04/08 12:02:03;;;;;;;4.80;2.17;;;24.80;99.90;;;;;;5395014;26;20283;-71
2024/04/08 12:04:32;;;;;;;2.13;1.77;;;24.80;99.90;;;;;;5371663;26;20358;-71
2024/04/08 12:06:58;;;;;;;3.35;1.83;;;24.50;99.90;;;;;;5390220;26;20318;-71
2024/04/08 12:09:29;;;;;;;4.18;2.13;;;24.60;99.90;;;;;;5394892;26;20867;-71
2024/04/08 12:11:55;;;;;;;1.77;1.63;;;24.70;99.90;;;;;;5397324;26;20252;-72
2024/04/08 12:14:26;;;;;;;3.10;2.03;;;24.90;99.90;;;;;;5394590;26;20260;-72
2024/04/08 12:16:52;;;;;;;3.63;2.00;;;24.90;99.90;;;;;;5392689;26;20267;-71
2024/04/08 12:19:21;;;;;;;3.58;2.15;;;24.80;99.90;;;;;;5399397;26;20248;-71
2024/04/08 12:21:47;;;;;;;5.85;1.80;;;24.60;99.90;;;;;;5392067;26;20256;-71
2024/04/08 12:24:16;;;;;;;4.53;1.60;;;24.60;99.90;;;;;;5391436;26;20283;-71
2024/04/08 12:26:44;;;;;;;2.40;1.98;;;24.70;99.90;;;;;;5392508;26;20271;-72
2024/04/08 12:29:13;;;;;;;2.35;1.60;;;24.80;99.90;;;;;;5398379;26;20287;-71
2024/04/08 12:31:39;;;;;;;4.45;2.17;;;24.90;99.90;;;;;;5391906;26;20310;-71
2024/04/08 12:34:08;;;;;;;5.45;1.73;;;25.00;99.90;;;;;;5392830;26;21095;-72
2024/04/08 12:36:34;;;;;;;2.35;1.90;;;25.00;99.90;;;;;;5399399;26;20689;-71
2024/04/08 12:39:02;;;;;;;4.55;1.92;;;25.20;99.90;;;;;;5402050;26;20244;-71
2024/04/08 12:41:28;;;;;;;2.50;1.80;;;25.20;99.90;;;;;;5395870;26;20397;-71
2024/04/08 12:44:00;;;;;;;4.60;1.80;;;25.30;99.90;;;;;;5394403;26;20335;-71
2024/04/08 12:46:26;;;;;;;4.32;1.80;;;25.10;99.90;;;;;;5386043;26;20317;-71
2024/04/08 12:48:54;;;;;;;2.70;1.70;;;25.00;99.90;;;;;;5401541;26;20260;-72
2024/04/08 12:51:20;;;;;;;3.65;1.75;;;25.00;99.90;;;;;;5400315;26;20245;-71
2024/04/08 12:53:49;;;;;;;2.25;1.70;;;25.00;99.90;;;;;;5398226;26;20912;-71